sensor_id;sensor_type;location;lat;lon;timestamp;P1;durP1;ratioP1;P2;durP2;ratioP2
815;SDS011;25928;51.062;13.752;2022-09-13T00:01:45;6.07;;;5.47;;
815;SDS011;25928;51.062;13.752;2022-09-13T00:04:11;6.43;;;5.93;;
815;SDS011;25928;51.062;13.752;2022-09-13T00:06:37;5.90;;;5.03;;
815;SDS011;25928;51.062;13.752;2022-09-13T00:09:02;5.83;;;5.33;;
815;SDS011;25928;51.062;13.752;2022-09-13T00:11:29;9.00;;;6.20;;
815;SDS011;25928;51.062;13.752;2022-09-13T00:13:55;8.60;;;6.27;;
815;SDS011;25928;51.062;13.752;2022-09-13T00:16:23;6.30;;;5.80;;
815;SDS011;25928;51.062;13.752;2022-09-13T00:18:51;5.93;;;5.43;;
815;SDS011;25928;51.062;13.752;2022-09-13T00:21:17;5.83;;;5.33;;
815;SDS011;25928;51.062;13.752;2022-09-13T00:23:45;7.53;;;6.40;;
815;SDS011;25928;51.062;13.752;2022-09-13T00:26:13;6.30;;;5.80;;
815;SDS011;25928;51.062;13.752;2022-09-13T00:28:41;6.57;;;5.87;;
815;SDS011;25928;51.062;13.752;2022-09-13T00:31:09;6.07;;;5.57;;
815;SDS011;25928;51.062;13.752;2022-09-13T00:33:36;6.57;;;5.73;;
815;SDS011;25928;51.062;13.752;2022-09-13T00:36:06;6.90;;;6.30;;
815;SDS011;25928;51.062;13.752;2022-09-13T00:38:34;6.20;;;5.60;;
815;SDS011;25928;51.062;13.752;2022-09-13T00:41:00;6.10;;;5.27;;
815;SDS011;25928;51.062;13.752;2022-09-13T00:46:32;5.60;;;5.10;;
815;SDS011;25928;51.062;13.752;2022-09-13T00:49:12;5.87;;;5.37;;
815;SDS011;25928;51.062;13.752;2022-09-13T00:51:49;5.97;;;5.47;;
815;SDS011;25928;51.062;13.752;2022-09-13T00:54:21;8.50;;;6.50;;
815;SDS011;25928;51.062;13.752;2022-09-13T00:56:51;5.67;;;5.17;;
815;SDS011;25928;51.062;13.752;2022-09-13T00:59:21;6.10;;;5.47;;
815;SDS011;25928;51.062;13.752;2022-09-13T01:01:53;8.10;;;6.03;;
815;SDS011;25928;51.062;13.752;2022-09-13T01:04:21;6.07;;;4.90;;
815;SDS011;25928;51.062;13.752;2022-09-13T01:06:50;6.67;;;6.00;;
815;SDS011;25928;51.062;13.752;2022-09-13T01:09:18;5.67;;;5.00;;
815;SDS011;25928;51.062;13.752;2022-09-13T01:12:45;5.67;;;5.20;;
815;SDS011;25928;51.062;13.752;2022-09-13T01:14:39;6.73;;;5.57;;
815;SDS011;25928;51.062;13.752;2022-09-13T01:17:05;5.20;;;4.80;;
815;SDS011;25928;51.062;13.752;2022-09-13T01:19:33;5.80;;;5.30;;
815;SDS011;25928;51.062;13.752;2022-09-13T01:33:25;5.17;;;4.73;;
815;SDS011;25928;51.062;13.752;2022-09-13T01:36:04;5.87;;;5.37;;
815;SDS011;25928;51.062;13.752;2022-09-13T01:39:02;5.47;;;4.97;;
815;SDS011;25928;51.062;13.752;2022-09-13T01:46:59;6.20;;;5.33;;
815;SDS011;25928;51.062;13.752;2022-09-13T01:55:05;5.90;;;5.40;;
815;SDS011;25928;51.062;13.752;2022-09-13T01:57:51;6.13;;;5.53;;
815;SDS011;25928;51.062;13.752;2022-09-13T02:00:20;5.63;;;5.20;;
815;SDS011;25928;51.062;13.752;2022-09-13T02:05:20;6.53;;;5.83;;
815;SDS011;25928;51.062;13.752;2022-09-13T02:08:07;5.37;;;4.93;;
815;SDS011;25928;51.062;13.752;2022-09-13T02:10:38;6.10;;;5.50;;
815;SDS011;25928;51.062;13.752;2022-09-13T02:13:10;6.07;;;5.47;;
815;SDS011;25928;51.062;13.752;2022-09-13T02:15:48;5.80;;;5.30;;
815;SDS011;25928;51.062;13.752;2022-09-13T02:18:22;5.50;;;5.00;;
815;SDS011;25928;51.062;13.752;2022-09-13T02:20:57;6.67;;;5.47;;
815;SDS011;25928;51.062;13.752;2022-09-13T02:23:33;5.27;;;4.77;;
815;SDS011;25928;51.062;13.752;2022-09-13T02:26:05;7.40;;;6.00;;
815;SDS011;25928;51.062;13.752;2022-09-13T02:28:35;6.93;;;5.40;;
815;SDS011;25928;51.062;13.752;2022-09-13T02:31:06;5.83;;;5.27;;
815;SDS011;25928;51.062;13.752;2022-09-13T02:33:41;5.60;;;5.10;;
815;SDS011;25928;51.062;13.752;2022-09-13T02:36:30;5.27;;;4.87;;
815;SDS011;25928;51.062;13.752;2022-09-13T02:38:59;5.60;;;5.13;;
815;SDS011;25928;51.062;13.752;2022-09-13T02:41:34;5.70;;;5.30;;
815;SDS011;25928;51.062;13.752;2022-09-13T02:44:36;5.87;;;5.27;;
815;SDS011;25928;51.062;13.752;2022-09-13T02:55:58;10.40;;;5.63;;
815;SDS011;25928;51.062;13.752;2022-09-13T03:00:43;5.90;;;5.40;;
815;SDS011;25928;51.062;13.752;2022-09-13T03:03:11;5.30;;;4.90;;
815;SDS011;25928;51.062;13.752;2022-09-13T03:05:39;6.13;;;5.63;;
815;SDS011;25928;51.062;13.752;2022-09-13T03:08:05;5.80;;;5.30;;
815;SDS011;25928;51.062;13.752;2022-09-13T03:10:43;5.67;;;5.17;;
815;SDS011;25928;51.062;13.752;2022-09-13T03:27:29;6.40;;;5.80;;
815;SDS011;25928;51.062;13.752;2022-09-13T03:30:12;7.10;;;5.40;;
815;SDS011;25928;51.062;13.752;2022-09-13T03:35:13;6.20;;;5.27;;
815;SDS011;25928;51.062;13.752;2022-09-13T03:43:12;9.10;;;5.13;;
815;SDS011;25928;51.062;13.752;2022-09-13T03:45:47;6.33;;;5.83;;
815;SDS011;25928;51.062;13.752;2022-09-13T03:48:15;6.73;;;6.03;;
815;SDS011;25928;51.062;13.752;2022-09-13T03:50:44;6.43;;;5.87;;
815;SDS011;25928;51.062;13.752;2022-09-13T03:53:12;5.67;;;5.17;;
815;SDS011;25928;51.062;13.752;2022-09-13T03:55:43;6.20;;;5.47;;
815;SDS011;25928;51.062;13.752;2022-09-13T03:58:13;5.93;;;5.40;;
815;SDS011;25928;51.062;13.752;2022-09-13T04:00:40;5.20;;;4.70;;
815;SDS011;25928;51.062;13.752;2022-09-13T04:03:07;6.83;;;6.00;;
815;SDS011;25928;51.062;13.752;2022-09-13T04:05:34;6.23;;;5.63;;
815;SDS011;25928;51.062;13.752;2022-09-13T04:08:00;6.13;;;5.63;;
815;SDS011;25928;51.062;13.752;2022-09-13T04:10:26;6.43;;;5.83;;
815;SDS011;25928;51.062;13.752;2022-09-13T04:12:53;6.90;;;5.80;;
815;SDS011;25928;51.062;13.752;2022-09-13T04:15:19;5.10;;;4.70;;
815;SDS011;25928;51.062;13.752;2022-09-13T04:17:45;6.63;;;5.93;;
815;SDS011;25928;51.062;13.752;2022-09-13T04:20:11;5.97;;;5.47;;
815;SDS011;25928;51.062;13.752;2022-09-13T04:22:37;7.20;;;5.77;;
815;SDS011;25928;51.062;13.752;2022-09-13T04:25:03;5.50;;;5.00;;
815;SDS011;25928;51.062;13.752;2022-09-13T04:27:29;6.00;;;5.50;;
815;SDS011;25928;51.062;13.752;2022-09-13T04:29:55;6.57;;;5.97;;
815;SDS011;25928;51.062;13.752;2022-09-13T04:32:20;5.50;;;5.10;;
815;SDS011;25928;51.062;13.752;2022-09-13T04:34:46;6.10;;;5.60;;
815;SDS011;25928;51.062;13.752;2022-09-13T04:37:12;15.60;;;11.70;;
815;SDS011;25928;51.062;13.752;2022-09-13T04:39:37;11.77;;;6.33;;
815;SDS011;25928;51.062;13.752;2022-09-13T04:42:03;9.93;;;6.47;;
815;SDS011;25928;51.062;13.752;2022-09-13T04:44:31;6.83;;;6.23;;
815;SDS011;25928;51.062;13.752;2022-09-13T04:46:57;6.10;;;5.60;;
815;SDS011;25928;51.062;13.752;2022-09-13T04:49:24;7.07;;;6.37;;
815;SDS011;25928;51.062;13.752;2022-09-13T04:51:49;9.23;;;6.70;;
815;SDS011;25928;51.062;13.752;2022-09-13T04:54:15;11.30;;;5.47;;
815;SDS011;25928;51.062;13.752;2022-09-13T04:56:41;8.33;;;6.00;;
815;SDS011;25928;51.062;13.752;2022-09-13T04:59:08;6.60;;;6.00;;
815;SDS011;25928;51.062;13.752;2022-09-13T05:01:34;7.33;;;6.50;;
815;SDS011;25928;51.062;13.752;2022-09-13T05:04:01;7.33;;;6.73;;
815;SDS011;25928;51.062;13.752;2022-09-13T05:06:27;7.03;;;6.33;;
815;SDS011;25928;51.062;13.752;2022-09-13T05:08:54;8.87;;;7.20;;
815;SDS011;25928;51.062;13.752;2022-09-13T05:11:21;6.60;;;6.00;;
815;SDS011;25928;51.062;13.752;2022-09-13T05:13:51;6.40;;;5.90;;
815;SDS011;25928;51.062;13.752;2022-09-13T05:16:19;7.37;;;6.67;;
815;SDS011;25928;51.062;13.752;2022-09-13T05:18:46;6.70;;;6.10;;
815;SDS011;25928;51.062;13.752;2022-09-13T05:21:12;7.27;;;6.67;;
815;SDS011;25928;51.062;13.752;2022-09-13T05:23:37;7.57;;;6.47;;
815;SDS011;25928;51.062;13.752;2022-09-13T05:26:06;8.20;;;6.63;;
815;SDS011;25928;51.062;13.752;2022-09-13T05:28:32;7.23;;;6.53;;
815;SDS011;25928;51.062;13.752;2022-09-13T05:31:00;6.63;;;5.93;;
815;SDS011;25928;51.062;13.752;2022-09-13T05:33:47;7.67;;;5.60;;
815;SDS011;25928;51.062;13.752;2022-09-13T05:36:16;7.60;;;5.60;;
815;SDS011;25928;51.062;13.752;2022-09-13T05:38:42;9.10;;;7.00;;
815;SDS011;25928;51.062;13.752;2022-09-13T05:41:08;9.63;;;6.23;;
815;SDS011;25928;51.062;13.752;2022-09-13T05:43:34;9.70;;;7.00;;
815;SDS011;25928;51.062;13.752;2022-09-13T05:46:01;7.30;;;6.60;;
815;SDS011;25928;51.062;13.752;2022-09-13T05:48:32;7.20;;;6.50;;
815;SDS011;25928;51.062;13.752;2022-09-13T05:53:40;7.00;;;6.40;;
815;SDS011;25928;51.062;13.752;2022-09-13T05:56:10;8.10;;;7.30;;
815;SDS011;25928;51.062;13.752;2022-09-13T05:58:37;8.70;;;6.07;;
815;SDS011;25928;51.062;13.752;2022-09-13T06:01:04;8.13;;;6.43;;
815;SDS011;25928;51.062;13.752;2022-09-13T06:03:30;9.43;;;6.20;;
815;SDS011;25928;51.062;13.752;2022-09-13T06:05:56;11.30;;;6.20;;
815;SDS011;25928;51.062;13.752;2022-09-13T06:08:25;8.20;;;7.07;;
815;SDS011;25928;51.062;13.752;2022-09-13T06:11:00;7.30;;;5.80;;
815;SDS011;25928;51.062;13.752;2022-09-13T06:13:34;6.70;;;6.00;;
815;SDS011;25928;51.062;13.752;2022-09-13T06:16:00;6.90;;;6.20;;
815;SDS011;25928;51.062;13.752;2022-09-13T06:18:32;13.47;;;5.97;;
815;SDS011;25928;51.062;13.752;2022-09-13T06:21:00;6.77;;;6.03;;
815;SDS011;25928;51.062;13.752;2022-09-13T06:23:30;8.17;;;6.03;;
815;SDS011;25928;51.062;13.752;2022-09-13T06:26:09;6.57;;;5.70;;
815;SDS011;25928;51.062;13.752;2022-09-13T06:28:36;6.77;;;5.70;;
815;SDS011;25928;51.062;13.752;2022-09-13T06:33:32;6.73;;;5.90;;
815;SDS011;25928;51.062;13.752;2022-09-13T06:35:59;7.40;;;5.30;;
815;SDS011;25928;51.062;13.752;2022-09-13T06:38:26;10.43;;;5.50;;
815;SDS011;25928;51.062;13.752;2022-09-13T06:41:08;6.53;;;5.37;;
815;SDS011;25928;51.062;13.752;2022-09-13T06:43:38;5.53;;;5.03;;
815;SDS011;25928;51.062;13.752;2022-09-13T06:46:07;7.70;;;5.93;;
815;SDS011;25928;51.062;13.752;2022-09-13T06:48:35;8.17;;;6.20;;
815;SDS011;25928;51.062;13.752;2022-09-13T06:51:06;7.50;;;6.20;;
815;SDS011;25928;51.062;13.752;2022-09-13T06:53:34;6.00;;;5.40;;
815;SDS011;25928;51.062;13.752;2022-09-13T06:56:01;6.60;;;6.00;;
815;SDS011;25928;51.062;13.752;2022-09-13T06:58:31;6.83;;;5.60;;
815;SDS011;25928;51.062;13.752;2022-09-13T07:01:11;8.37;;;5.70;;
815;SDS011;25928;51.062;13.752;2022-09-13T07:03:48;7.43;;;6.73;;
815;SDS011;25928;51.062;13.752;2022-09-13T07:06:17;6.20;;;5.60;;
815;SDS011;25928;51.062;13.752;2022-09-13T07:08:45;7.10;;;5.17;;
815;SDS011;25928;51.062;13.752;2022-09-13T07:11:12;6.23;;;5.40;;
815;SDS011;25928;51.062;13.752;2022-09-13T07:13:40;5.80;;;5.00;;
815;SDS011;25928;51.062;13.752;2022-09-13T07:16:09;7.37;;;5.93;;
815;SDS011;25928;51.062;13.752;2022-09-13T07:18:35;7.57;;;4.90;;
815;SDS011;25928;51.062;13.752;2022-09-13T07:21:06;8.63;;;5.63;;
815;SDS011;25928;51.062;13.752;2022-09-13T07:23:34;7.90;;;5.50;;
815;SDS011;25928;51.062;13.752;2022-09-13T07:26:02;6.20;;;5.60;;
815;SDS011;25928;51.062;13.752;2022-09-13T07:28:31;6.47;;;5.87;;
815;SDS011;25928;51.062;13.752;2022-09-13T07:31:05;5.33;;;4.87;;
815;SDS011;25928;51.062;13.752;2022-09-13T07:33:33;7.53;;;6.30;;
815;SDS011;25928;51.062;13.752;2022-09-13T07:35:59;5.90;;;5.07;;
815;SDS011;25928;51.062;13.752;2022-09-13T07:38:30;6.83;;;5.03;;
815;SDS011;25928;51.062;13.752;2022-09-13T07:40:59;7.60;;;5.30;;
815;SDS011;25928;51.062;13.752;2022-09-13T07:43:25;5.90;;;5.30;;
815;SDS011;25928;51.062;13.752;2022-09-13T07:46:01;6.90;;;4.87;;
815;SDS011;25928;51.062;13.752;2022-09-13T07:48:32;5.37;;;4.97;;
815;SDS011;25928;51.062;13.752;2022-09-13T07:51:10;5.93;;;5.20;;
815;SDS011;25928;51.062;13.752;2022-09-13T07:53:41;7.73;;;5.23;;
815;SDS011;25928;51.062;13.752;2022-09-13T07:56:08;6.20;;;5.60;;
815;SDS011;25928;51.062;13.752;2022-09-13T07:58:36;6.97;;;5.97;;
815;SDS011;25928;51.062;13.752;2022-09-13T08:01:07;5.13;;;4.63;;
815;SDS011;25928;51.062;13.752;2022-09-13T08:03:43;7.00;;;5.70;;
815;SDS011;25928;51.062;13.752;2022-09-13T08:06:14;6.30;;;5.70;;
815;SDS011;25928;51.062;13.752;2022-09-13T08:08:40;7.10;;;5.37;;
815;SDS011;25928;51.062;13.752;2022-09-13T08:11:05;6.20;;;5.53;;
815;SDS011;25928;51.062;13.752;2022-09-13T08:13:31;6.47;;;5.87;;
815;SDS011;25928;51.062;13.752;2022-09-13T08:16:01;6.67;;;6.07;;
815;SDS011;25928;51.062;13.752;2022-09-13T08:18:29;6.87;;;6.17;;
815;SDS011;25928;51.062;13.752;2022-09-13T08:20:56;9.07;;;5.87;;
815;SDS011;25928;51.062;13.752;2022-09-13T08:23:22;7.23;;;6.57;;
815;SDS011;25928;51.062;13.752;2022-09-13T08:25:48;7.67;;;6.97;;
815;SDS011;25928;51.062;13.752;2022-09-13T08:28:15;8.83;;;6.77;;
815;SDS011;25928;51.062;13.752;2022-09-13T08:30:41;6.70;;;6.10;;
815;SDS011;25928;51.062;13.752;2022-09-13T08:33:08;7.03;;;6.30;;
815;SDS011;25928;51.062;13.752;2022-09-13T08:35:35;7.07;;;6.37;;
815;SDS011;25928;51.062;13.752;2022-09-13T08:38:02;7.80;;;7.00;;
815;SDS011;25928;51.062;13.752;2022-09-13T08:48:52;8.00;;;7.30;;
815;SDS011;25928;51.062;13.752;2022-09-13T08:51:34;9.10;;;7.20;;
815;SDS011;25928;51.062;13.752;2022-09-13T08:54:07;6.87;;;6.27;;
815;SDS011;25928;51.062;13.752;2022-09-13T09:04:53;7.20;;;6.60;;
815;SDS011;25928;51.062;13.752;2022-09-13T09:07:33;9.00;;;6.97;;
815;SDS011;25928;51.062;13.752;2022-09-13T09:10:05;7.33;;;6.73;;
815;SDS011;25928;51.062;13.752;2022-09-13T09:12:40;8.77;;;6.60;;
815;SDS011;25928;51.062;13.752;2022-09-13T09:17:49;11.40;;;8.20;;
815;SDS011;25928;51.062;13.752;2022-09-13T09:26:17;7.73;;;6.40;;
815;SDS011;25928;51.062;13.752;2022-09-13T09:28:57;8.10;;;6.53;;
815;SDS011;25928;51.062;13.752;2022-09-13T09:34:07;7.70;;;5.70;;
815;SDS011;25928;51.062;13.752;2022-09-13T09:36:48;7.67;;;6.97;;
815;SDS011;25928;51.062;13.752;2022-09-13T09:39:32;7.70;;;6.10;;
815;SDS011;25928;51.062;13.752;2022-09-13T09:42:02;8.03;;;6.30;;
815;SDS011;25928;51.062;13.752;2022-09-13T09:44:37;8.17;;;6.70;;
815;SDS011;25928;51.062;13.752;2022-09-13T09:49:59;8.13;;;7.30;;
815;SDS011;25928;51.062;13.752;2022-09-13T09:55:09;6.87;;;6.27;;
815;SDS011;25928;51.062;13.752;2022-09-13T10:00:34;8.57;;;6.73;;
815;SDS011;25928;51.062;13.752;2022-09-13T10:03:05;7.33;;;6.60;;
815;SDS011;25928;51.062;13.752;2022-09-13T10:05:39;7.40;;;6.70;;
815;SDS011;25928;51.062;13.752;2022-09-13T10:08:06;6.30;;;5.80;;
815;SDS011;25928;51.062;13.752;2022-09-13T10:10:54;6.27;;;5.77;;
815;SDS011;25928;51.062;13.752;2022-09-13T10:13:23;7.50;;;6.23;;
815;SDS011;25928;51.062;13.752;2022-09-13T10:15:52;6.97;;;6.23;;
815;SDS011;25928;51.062;13.752;2022-09-13T10:18:23;6.40;;;5.80;;
815;SDS011;25928;51.062;13.752;2022-09-13T10:23:41;6.13;;;5.53;;
815;SDS011;25928;51.062;13.752;2022-09-13T10:26:08;6.23;;;5.63;;
815;SDS011;25928;51.062;13.752;2022-09-13T10:29:25;5.57;;;5.07;;
815;SDS011;25928;51.062;13.752;2022-09-13T10:31:44;6.20;;;5.40;;
815;SDS011;25928;51.062;13.752;2022-09-13T10:34:12;5.73;;;5.23;;
815;SDS011;25928;51.062;13.752;2022-09-13T10:37:11;6.17;;;5.57;;
815;SDS011;25928;51.062;13.752;2022-09-13T10:40:06;9.90;;;5.77;;
815;SDS011;25928;51.062;13.752;2022-09-13T10:42:37;5.87;;;4.70;;
815;SDS011;25928;51.062;13.752;2022-09-13T10:45:06;6.50;;;6.00;;
815;SDS011;25928;51.062;13.752;2022-09-13T10:50:17;5.17;;;4.67;;
815;SDS011;25928;51.062;13.752;2022-09-13T10:52:44;5.50;;;4.10;;
815;SDS011;25928;51.062;13.752;2022-09-13T10:57:44;6.67;;;4.30;;
815;SDS011;25928;51.062;13.752;2022-09-13T11:00:11;5.00;;;4.60;;
815;SDS011;25928;51.062;13.752;2022-09-13T11:08:26;4.23;;;3.93;;
815;SDS011;25928;51.062;13.752;2022-09-13T11:11:14;4.37;;;4.07;;
815;SDS011;25928;51.062;13.752;2022-09-13T11:35:21;3.50;;;3.20;;
815;SDS011;25928;51.062;13.752;2022-09-13T11:57:28;3.30;;;3.00;;
815;SDS011;25928;51.062;13.752;2022-09-13T12:00:31;11.03;;;3.77;;
815;SDS011;25928;51.062;13.752;2022-09-13T12:05:53;3.30;;;3.10;;
815;SDS011;25928;51.062;13.752;2022-09-13T12:08:48;3.40;;;3.10;;
815;SDS011;25928;51.062;13.752;2022-09-13T12:11:18;3.57;;;3.27;;
815;SDS011;25928;51.062;13.752;2022-09-13T12:13:50;3.10;;;2.80;;
815;SDS011;25928;51.062;13.752;2022-09-13T12:16:24;3.30;;;3.00;;
815;SDS011;25928;51.062;13.752;2022-09-13T12:19:22;3.17;;;2.97;;
815;SDS011;25928;51.062;13.752;2022-09-13T12:21:49;3.30;;;3.00;;
815;SDS011;25928;51.062;13.752;2022-09-13T12:26:58;3.23;;;2.70;;
815;SDS011;25928;51.062;13.752;2022-09-13T12:32:03;2.50;;;2.30;;
815;SDS011;25928;51.062;13.752;2022-09-13T12:34:48;2.73;;;2.53;;
815;SDS011;25928;51.062;13.752;2022-09-13T13:01:33;2.70;;;2.33;;
815;SDS011;25928;51.062;13.752;2022-09-13T13:04:07;2.40;;;2.30;;
815;SDS011;25928;51.062;13.752;2022-09-13T13:06:41;2.60;;;2.40;;
815;SDS011;25928;51.062;13.752;2022-09-13T13:09:22;3.83;;;2.73;;
815;SDS011;25928;51.062;13.752;2022-09-13T13:11:48;3.10;;;1.80;;
815;SDS011;25928;51.062;13.752;2022-09-13T13:26:41;3.47;;;2.47;;
815;SDS011;25928;51.062;13.752;2022-09-13T13:34:29;3.97;;;2.20;;
815;SDS011;25928;51.062;13.752;2022-09-13T13:37:02;4.70;;;2.60;;
815;SDS011;25928;51.062;13.752;2022-09-13T13:46:52;3.63;;;2.30;;
815;SDS011;25928;51.062;13.752;2022-09-13T13:57:31;2.50;;;2.30;;
815;SDS011;25928;51.062;13.752;2022-09-13T14:07:59;2.90;;;2.13;;
815;SDS011;25928;51.062;13.752;2022-09-13T14:16:34;2.13;;;1.97;;
815;SDS011;25928;51.062;13.752;2022-09-13T14:19:18;2.47;;;2.27;;
815;SDS011;25928;51.062;13.752;2022-09-13T14:24:47;2.37;;;2.17;;
815;SDS011;25928;51.062;13.752;2022-09-13T14:27:18;6.13;;;2.30;;
815;SDS011;25928;51.062;13.752;2022-09-13T14:29:48;2.20;;;2.00;;
815;SDS011;25928;51.062;13.752;2022-09-13T14:32:19;1.97;;;1.87;;
815;SDS011;25928;51.062;13.752;2022-09-13T14:34:52;2.20;;;2.10;;
815;SDS011;25928;51.062;13.752;2022-09-13T14:37:23;2.83;;;2.30;;
815;SDS011;25928;51.062;13.752;2022-09-13T14:39:56;4.13;;;2.30;;
815;SDS011;25928;51.062;13.752;2022-09-13T14:42:24;5.63;;;2.43;;
815;SDS011;25928;51.062;13.752;2022-09-13T14:44:50;2.70;;;2.50;;
815;SDS011;25928;51.062;13.752;2022-09-13T14:47:25;6.00;;;2.70;;
815;SDS011;25928;51.062;13.752;2022-09-13T14:49:56;2.37;;;2.00;;
815;SDS011;25928;51.062;13.752;2022-09-13T14:52:27;2.20;;;2.00;;
815;SDS011;25928;51.062;13.752;2022-09-13T14:55:00;2.40;;;2.17;;
815;SDS011;25928;51.062;13.752;2022-09-13T14:57:31;2.73;;;2.53;;
815;SDS011;25928;51.062;13.752;2022-09-13T15:00:03;3.13;;;2.83;;
815;SDS011;25928;51.062;13.752;2022-09-13T15:02:50;2.57;;;2.00;;
815;SDS011;25928;51.062;13.752;2022-09-13T15:05:19;2.60;;;2.40;;
815;SDS011;25928;51.062;13.752;2022-09-13T15:07:47;4.90;;;2.47;;
815;SDS011;25928;51.062;13.752;2022-09-13T15:17:50;2.33;;;2.20;;
815;SDS011;25928;51.062;13.752;2022-09-13T15:20:20;1.90;;;1.80;;
815;SDS011;25928;51.062;13.752;2022-09-13T15:22:46;3.27;;;2.43;;
815;SDS011;25928;51.062;13.752;2022-09-13T15:25:27;3.17;;;2.37;;
815;SDS011;25928;51.062;13.752;2022-09-13T15:27:54;4.50;;;2.70;;
815;SDS011;25928;51.062;13.752;2022-09-13T15:30:25;3.57;;;2.80;;
815;SDS011;25928;51.062;13.752;2022-09-13T15:38:59;7.83;;;2.53;;
815;SDS011;25928;51.062;13.752;2022-09-13T15:41:32;2.80;;;2.60;;
815;SDS011;25928;51.062;13.752;2022-09-13T15:44:00;3.00;;;2.70;;
815;SDS011;25928;51.062;13.752;2022-09-13T15:46:27;2.77;;;2.57;;
815;SDS011;25928;51.062;13.752;2022-09-13T15:49:03;3.10;;;2.80;;
815;SDS011;25928;51.062;13.752;2022-09-13T15:51:29;2.70;;;2.50;;
815;SDS011;25928;51.062;13.752;2022-09-13T15:53:55;3.10;;;2.80;;
815;SDS011;25928;51.062;13.752;2022-09-13T15:56:27;4.50;;;2.37;;
815;SDS011;25928;51.062;13.752;2022-09-13T15:58:56;2.33;;;2.13;;
815;SDS011;25928;51.062;13.752;2022-09-13T16:01:22;2.70;;;2.50;;
815;SDS011;25928;51.062;13.752;2022-09-13T16:03:47;2.50;;;1.97;;
815;SDS011;25928;51.062;13.752;2022-09-13T16:06:13;2.67;;;2.47;;
815;SDS011;25928;51.062;13.752;2022-09-13T16:08:38;8.17;;;2.17;;
815;SDS011;25928;51.062;13.752;2022-09-13T16:11:04;2.93;;;2.63;;
815;SDS011;25928;51.062;13.752;2022-09-13T16:13:31;3.40;;;2.50;;
815;SDS011;25928;51.062;13.752;2022-09-13T16:15:57;3.00;;;2.80;;
815;SDS011;25928;51.062;13.752;2022-09-13T16:18:23;2.30;;;2.10;;
815;SDS011;25928;51.062;13.752;2022-09-13T16:20:49;2.90;;;2.60;;
815;SDS011;25928;51.062;13.752;2022-09-13T16:23:14;3.27;;;2.70;;
815;SDS011;25928;51.062;13.752;2022-09-13T16:25:40;3.00;;;2.50;;
815;SDS011;25928;51.062;13.752;2022-09-13T16:28:06;2.37;;;2.17;;
815;SDS011;25928;51.062;13.752;2022-09-13T16:30:32;2.50;;;2.30;;
815;SDS011;25928;51.062;13.752;2022-09-13T16:32:58;2.43;;;2.23;;
815;SDS011;25928;51.062;13.752;2022-09-13T16:35:28;2.33;;;2.13;;
815;SDS011;25928;51.062;13.752;2022-09-13T16:37:55;2.20;;;2.00;;
815;SDS011;25928;51.062;13.752;2022-09-13T16:40:21;2.83;;;2.50;;
815;SDS011;25928;51.062;13.752;2022-09-13T16:42:47;5.43;;;2.47;;
815;SDS011;25928;51.062;13.752;2022-09-13T16:45:13;3.10;;;2.10;;
815;SDS011;25928;51.062;13.752;2022-09-13T16:47:39;2.70;;;2.50;;
815;SDS011;25928;51.062;13.752;2022-09-13T16:50:05;2.17;;;2.07;;
815;SDS011;25928;51.062;13.752;2022-09-13T16:52:31;2.77;;;2.57;;
815;SDS011;25928;51.062;13.752;2022-09-13T16:54:59;3.97;;;2.30;;
815;SDS011;25928;51.062;13.752;2022-09-13T16:57:25;2.70;;;2.03;;
815;SDS011;25928;51.062;13.752;2022-09-13T16:59:53;2.33;;;2.10;;
815;SDS011;25928;51.062;13.752;2022-09-13T17:02:22;7.53;;;2.00;;
815;SDS011;25928;51.062;13.752;2022-09-13T17:04:48;2.47;;;2.27;;
815;SDS011;25928;51.062;13.752;2022-09-13T17:07:13;3.93;;;2.40;;
815;SDS011;25928;51.062;13.752;2022-09-13T17:09:39;3.53;;;2.30;;
815;SDS011;25928;51.062;13.752;2022-09-13T17:12:06;4.27;;;2.50;;
815;SDS011;25928;51.062;13.752;2022-09-13T17:14:33;3.70;;;2.90;;
815;SDS011;25928;51.062;13.752;2022-09-13T17:16:59;3.23;;;2.93;;
815;SDS011;25928;51.062;13.752;2022-09-13T17:19:26;2.90;;;2.70;;
815;SDS011;25928;51.062;13.752;2022-09-13T17:21:55;2.53;;;2.33;;
815;SDS011;25928;51.062;13.752;2022-09-13T17:24:22;2.60;;;2.40;;
815;SDS011;25928;51.062;13.752;2022-09-13T17:26:49;2.90;;;2.70;;
815;SDS011;25928;51.062;13.752;2022-09-13T17:29:15;4.30;;;2.60;;
815;SDS011;25928;51.062;13.752;2022-09-13T17:31:40;3.10;;;2.80;;
815;SDS011;25928;51.062;13.752;2022-09-13T17:34:07;3.30;;;2.90;;
815;SDS011;25928;51.062;13.752;2022-09-13T17:36:40;3.40;;;2.70;;
815;SDS011;25928;51.062;13.752;2022-09-13T17:39:06;3.63;;;2.40;;
815;SDS011;25928;51.062;13.752;2022-09-13T17:41:32;3.07;;;2.50;;
815;SDS011;25928;51.062;13.752;2022-09-13T17:43:58;3.87;;;2.43;;
815;SDS011;25928;51.062;13.752;2022-09-13T17:46:24;5.77;;;2.50;;
815;SDS011;25928;51.062;13.752;2022-09-13T17:48:53;2.77;;;2.57;;
815;SDS011;25928;51.062;13.752;2022-09-13T17:51:20;2.67;;;2.47;;
815;SDS011;25928;51.062;13.752;2022-09-13T17:53:51;2.90;;;2.70;;
815;SDS011;25928;51.062;13.752;2022-09-13T17:56:19;2.93;;;2.73;;
815;SDS011;25928;51.062;13.752;2022-09-13T17:58:46;3.40;;;3.10;;
815;SDS011;25928;51.062;13.752;2022-09-13T18:01:12;3.40;;;3.10;;
815;SDS011;25928;51.062;13.752;2022-09-13T18:03:38;4.93;;;3.83;;
815;SDS011;25928;51.062;13.752;2022-09-13T18:06:05;3.93;;;3.47;;
815;SDS011;25928;51.062;13.752;2022-09-13T18:08:32;5.67;;;5.17;;
815;SDS011;25928;51.062;13.752;2022-09-13T18:13:51;3.20;;;2.90;;
815;SDS011;25928;51.062;13.752;2022-09-13T18:16:21;4.60;;;3.23;;
815;SDS011;25928;51.062;13.752;2022-09-13T18:18:49;3.70;;;3.40;;
815;SDS011;25928;51.062;13.752;2022-09-13T18:21:16;4.07;;;3.77;;
815;SDS011;25928;51.062;13.752;2022-09-13T18:23:48;4.00;;;3.33;;
815;SDS011;25928;51.062;13.752;2022-09-13T18:26:16;3.97;;;2.90;;
815;SDS011;25928;51.062;13.752;2022-09-13T18:28:45;5.10;;;3.57;;
815;SDS011;25928;51.062;13.752;2022-09-13T18:31:15;6.57;;;3.40;;
815;SDS011;25928;51.062;13.752;2022-09-13T18:33:42;3.73;;;3.43;;
815;SDS011;25928;51.062;13.752;2022-09-13T18:36:09;5.37;;;3.80;;
815;SDS011;25928;51.062;13.752;2022-09-13T18:38:37;4.90;;;3.33;;
815;SDS011;25928;51.062;13.752;2022-09-13T18:41:06;4.27;;;3.60;;
815;SDS011;25928;51.062;13.752;2022-09-13T18:43:34;11.30;;;9.40;;
815;SDS011;25928;51.062;13.752;2022-09-13T18:46:01;4.93;;;3.80;;
815;SDS011;25928;51.062;13.752;2022-09-13T18:48:33;4.20;;;3.90;;
815;SDS011;25928;51.062;13.752;2022-09-13T18:51:00;5.27;;;4.50;;
815;SDS011;25928;51.062;13.752;2022-09-13T18:53:32;4.60;;;4.10;;
815;SDS011;25928;51.062;13.752;2022-09-13T18:55:59;5.27;;;4.23;;
815;SDS011;25928;51.062;13.752;2022-09-13T18:58:25;5.00;;;4.50;;
815;SDS011;25928;51.062;13.752;2022-09-13T19:01:00;4.50;;;4.10;;
815;SDS011;25928;51.062;13.752;2022-09-13T19:03:25;5.23;;;4.73;;
815;SDS011;25928;51.062;13.752;2022-09-13T19:05:51;6.53;;;5.90;;
815;SDS011;25928;51.062;13.752;2022-09-13T19:08:16;5.97;;;4.67;;
815;SDS011;25928;51.062;13.752;2022-09-13T19:10:42;11.53;;;5.20;;
815;SDS011;25928;51.062;13.752;2022-09-13T19:13:08;5.30;;;4.80;;
815;SDS011;25928;51.062;13.752;2022-09-13T19:15:35;4.63;;;4.13;;
815;SDS011;25928;51.062;13.752;2022-09-13T19:18:00;5.10;;;4.40;;
815;SDS011;25928;51.062;13.752;2022-09-13T19:20:26;7.50;;;4.43;;
815;SDS011;25928;51.062;13.752;2022-09-13T19:22:52;6.07;;;5.40;;
815;SDS011;25928;51.062;13.752;2022-09-13T19:25:18;4.83;;;4.20;;
815;SDS011;25928;51.062;13.752;2022-09-13T19:27:46;6.00;;;4.00;;
815;SDS011;25928;51.062;13.752;2022-09-13T19:30:12;5.63;;;5.13;;
815;SDS011;25928;51.062;13.752;2022-09-13T19:32:38;4.17;;;3.87;;
815;SDS011;25928;51.062;13.752;2022-09-13T19:35:04;4.17;;;3.87;;